Time;durP1;ratioP1;P1;durP2;ratioP2;P2;SDS_P1;SDS_P2;PMS_P1;PMS_P2;Temp;Humidity;BMP_temperature;BMP_pressure;BME280_temperature;BME280_humidity;BME280_pressure;Samples;Min_cycle;Max_cycle;Signal;HPM_P1;HPM_P2
2021/11/10 00:00:10;;;;;;;16.03;9.67;;;4.90;90.10;;;;;;5054142;28;20197;-86
2021/11/10 00:02:35;;;;;;;24.37;10.30;;;5.00;90.30;;;;;;5037012;28;20594;-86
2021/11/10 00:05:02;;;;;;;18.73;9.00;;;4.90;90.10;;;;;;5054558;28;20184;-86
2021/11/10 00:07:27;;;;;;;16.73;10.53;;;4.80;90.20;;;;;;5054765;28;20208;-86
2021/11/10 00:09:53;;;;;;;14.77;9.50;;;4.80;90.30;;;;;;5036456;28;20283;-86
2021/11/10 00:12:18;;;;;;;22.20;9.23;;;4.80;90.40;;;;;;5054395;28;20177;-86
2021/11/10 00:14:44;;;;;;;12.37;8.80;;;4.80;90.50;;;;;;5036555;28;20177;-85
2021/11/10 00:17:10;;;;;;;17.03;10.47;;;4.80;90.70;;;;;;5036523;28;20190;-85
2021/11/10 00:19:35;;;;;;;16.40;10.30;;;4.80;90.80;;;;;;5054311;28;20237;-85
2021/11/10 00:22:01;;;;;;;13.00;9.67;;;4.80;91.20;;;;;;5036376;28;20193;-85
2021/11/10 00:24:26;;;;;;;20.40;10.20;;;4.80;91.30;;;;;;5054205;28;20191;-85
2021/11/10 00:26:52;;;;;;;17.27;9.27;;;4.80;91.30;;;;;;5036338;28;20183;-85
2021/11/10 00:29:18;;;;;;;21.30;9.73;;;4.80;91.30;;;;;;5036466;28;20225;-85
2021/11/10 00:31:43;;;;;;;21.27;10.67;;;4.80;91.30;;;;;;5036302;28;20177;-85
2021/11/10 00:34:09;;;;;;;16.00;9.07;;;4.80;91.40;;;;;;5036106;28;20656;-85
2021/11/10 00:36:35;;;;;;;17.33;9.93;;;4.80;91.40;;;;;;5054055;28;20209;-86
2021/11/10 00:39:00;;;;;;;14.00;9.70;;;4.90;91.40;;;;;;5053815;28;20196;-85
2021/11/10 00:41:26;;;;;;;21.83;9.90;;;5.00;91.40;;;;;;5036114;28;20173;-85
2021/11/10 00:43:52;;;;;;;16.40;10.33;;;5.00;91.20;;;;;;5035926;28;20181;-85
2021/11/10 00:46:17;;;;;;;23.37;10.37;;;5.10;91.20;;;;;;5035936;28;20250;-85
2021/11/10 00:48:43;;;;;;;21.23;10.50;;;5.10;91.10;;;;;;5035835;28;20247;-85
2021/11/10 00:51:09;;;;;;;16.03;9.60;;;5.10;91.00;;;;;;5035934;28;20181;-86
2021/11/10 00:53:34;;;;;;;20.27;9.83;;;5.00;90.90;;;;;;5053728;28;20234;-86
2021/11/10 00:56:00;;;;;;;19.63;9.63;;;5.00;90.90;;;;;;5035898;28;20194;-86
2021/11/10 00:58:26;;;;;;;14.13;9.63;;;5.10;91.00;;;;;;5035720;28;20181;-86
2021/11/10 01:00:52;;;;;;;19.33;10.37;;;5.00;90.80;;;;;;5035725;28;20580;-86
2021/11/10 01:03:19;;;;;;;21.27;10.10;;;5.00;90.90;;;;;;5035789;28;20666;-86
2021/11/10 01:05:44;;;;;;;24.63;10.40;;;5.00;90.80;;;;;;5053494;28;20212;-86
2021/11/10 01:08:10;;;;;;;21.40;9.80;;;5.00;90.80;;;;;;5035626;28;20278;-86
2021/11/10 01:10:36;;;;;;;18.33;9.80;;;5.00;90.80;;;;;;5035691;28;20201;-86
2021/11/10 01:13:03;;;;;;;22.80;10.10;;;5.00;90.80;;;;;;5053360;28;20260;-86
2021/11/10 01:15:28;;;;;;;22.97;9.60;;;5.00;90.90;;;;;;5053319;28;20206;-86
2021/11/10 01:17:54;;;;;;;20.67;9.13;;;4.90;90.90;;;;;;5053609;28;20204;-86
2021/11/10 01:20:20;;;;;;;20.13;9.90;;;4.90;91.00;;;;;;5053109;28;20212;-86
2021/11/10 01:22:46;;;;;;;21.40;9.53;;;4.90;91.10;;;;;;5035416;28;20173;-86
2021/11/10 01:25:13;;;;;;;17.77;9.80;;;5.00;91.00;;;;;;5053206;28;20205;-86
2021/11/10 01:27:39;;;;;;;17.67;9.00;;;5.00;90.90;;;;;;5053151;28;20598;-86
2021/11/10 01:30:08;;;;;;;18.07;9.67;;;4.90;90.90;;;;;;5053242;28;20293;-85
2021/11/10 01:32:34;;;;;;;17.27;10.33;;;4.90;91.00;;;;;;5052989;28;20181;-85
2021/11/10 01:35:00;;;;;;;21.97;9.43;;;4.90;91.00;;;;;;5053129;28;20314;-86
2021/11/10 01:37:26;;;;;;;18.00;9.43;;;4.90;91.00;;;;;;5035316;28;20524;-86
2021/11/10 01:39:52;;;;;;;13.53;9.17;;;4.80;90.90;;;;;;5035191;28;20208;-86
2021/11/10 01:42:17;;;;;;;20.20;9.43;;;4.90;91.00;;;;;;5053054;28;20571;-86
2021/11/10 01:44:43;;;;;;;19.47;9.20;;;4.80;91.00;;;;;;5035132;28;20185;-86
2021/11/10 01:47:11;;;;;;;22.00;9.60;;;4.80;91.00;;;;;;5053041;28;20540;-86
2021/11/10 01:49:40;;;;;;;14.90;9.00;;;4.80;91.00;;;;;;5034895;28;20249;-86
2021/11/10 01:52:08;;;;;;;16.70;8.93;;;4.80;90.90;;;;;;5053041;28;20180;-86
2021/11/10 01:54:35;;;;;;;17.40;9.77;;;4.80;90.90;;;;;;5035069;28;20189;-85
2021/11/10 01:57:03;;;;;;;20.77;9.60;;;4.80;91.00;;;;;;5035033;28;20178;-85
2021/11/10 01:59:40;;;;;;;14.87;9.37;;;4.80;91.10;;;;;;5052829;28;20607;-85
2021/11/10 02:02:29;;;;;;;14.33;9.33;;;4.80;91.10;;;;;;5035046;28;20261;-85
2021/11/10 02:04:55;;;;;;;13.87;9.77;;;4.80;91.00;;;;;;5052853;28;20163;-85
2021/11/10 02:07:21;;;;;;;16.73;8.87;;;4.80;90.90;;;;;;5053067;28;20260;-85
2021/11/10 02:09:48;;;;;;;20.80;9.23;;;4.80;91.00;;;;;;5034782;28;20211;-86
2021/11/10 02:12:15;;;;;;;19.17;10.17;;;4.80;90.90;;;;;;5034978;28;20614;-86
2021/11/10 02:14:41;;;;;;;17.17;8.87;;;4.80;91.00;;;;;;5034914;28;20217;-86
2021/11/10 02:17:12;;;;;;;16.10;9.87;;;4.80;91.10;;;;;;5034926;28;20178;-85
2021/11/10 02:19:38;;;;;;;21.07;9.27;;;4.80;91.10;;;;;;5034718;28;20244;-85
2021/11/10 02:22:04;;;;;;;15.00;9.33;;;4.80;91.20;;;;;;5035502;28;20186;-85
2021/11/10 02:24:31;;;;;;;18.63;9.97;;;4.90;91.20;;;;;;5056925;28;20699;-85
2021/11/10 02:26:58;;;;;;;31.97;9.70;;;5.00;91.10;;;;;;5038595;28;20205;-86
2021/11/10 02:29:27;;;;;;;16.30;9.20;;;5.00;91.00;;;;;;5056283;28;20205;-86
2021/11/10 02:31:56;;;;;;;17.80;9.60;;;5.00;91.10;;;;;;5056349;28;20546;-86
2021/11/10 02:34:22;;;;;;;19.90;9.47;;;4.90;91.00;;;;;;5038512;28;20214;-86
2021/11/10 02:36:48;;;;;;;17.03;9.40;;;4.90;91.10;;;;;;5038457;28;20594;-86
2021/11/10 02:39:21;;;;;;;20.97;10.00;;;4.90;91.10;;;;;;5038315;28;20288;-85
2021/11/10 02:41:47;;;;;;;14.00;8.90;;;4.90;91.00;;;;;;5056187;28;20175;-85
2021/11/10 02:44:16;;;;;;;15.77;9.37;;;4.90;91.00;;;;;;5056138;28;20181;-85
2021/11/10 02:46:43;;;;;;;18.33;9.80;;;4.90;91.00;;;;;;5056034;28;20185;-85
2021/11/10 02:49:10;;;;;;;17.97;9.17;;;4.90;91.10;;;;;;5038048;28;20218;-85
2021/11/10 02:51:36;;;;;;;16.93;9.70;;;5.00;91.10;;;;;;5038180;28;20176;-85
2021/11/10 02:54:07;;;;;;;14.27;8.87;;;5.00;90.90;;;;;;5055935;28;20541;-85
2021/11/10 02:56:33;;;;;;;17.10;9.43;;;4.90;90.90;;;;;;5039421;28;20551;-85
2021/11/10 02:58:58;;;;;;;16.67;9.70;;;5.00;91.00;;;;;;5037773;28;20201;-85
2021/11/10 03:01:24;;;;;;;14.40;9.13;;;5.00;90.90;;;;;;5055884;28;20265;-85
2021/11/10 03:03:49;;;;;;;21.37;10.03;;;4.90;90.80;;;;;;5037899;28;20620;-85
2021/11/10 03:06:15;;;;;;;15.57;10.17;;;5.00;90.90;;;;;;5038021;28;20181;-85
2021/11/10 03:08:42;;;;;;;17.73;8.97;;;5.00;90.80;;;;;;5037698;28;20252;-85
2021/11/10 03:11:08;;;;;;;16.90;9.90;;;5.00;90.60;;;;;;5037767;28;20272;-85
2021/11/10 03:13:39;;;;;;;21.53;8.63;;;4.90;90.70;;;;;;5055685;28;20252;-85
2021/11/10 03:16:05;;;;;;;16.73;8.40;;;4.90;90.70;;;;;;5055599;28;20158;-85
2021/11/10 03:18:30;;;;;;;11.83;7.63;;;4.90;90.60;;;;;;5055536;28;20182;-85
2021/11/10 03:20:56;;;;;;;8.63;7.20;;;4.90;90.60;;;;;;5055519;28;20226;-86
2021/11/10 03:23:22;;;;;;;13.00;7.37;;;4.90;90.50;;;;;;5037590;28;20179;-86
2021/11/10 03:25:47;;;;;;;11.40;7.40;;;4.90;90.40;;;;;;5037541;28;20185;-86
2021/11/10 03:28:13;;;;;;;14.37;7.50;;;4.70;90.00;;;;;;5037399;28;20209;-86
2021/11/10 03:30:39;;;;;;;16.27;8.20;;;4.50;90.20;;;;;;5055294;28;20194;-86
2021/11/10 03:33:05;;;;;;;16.63;8.13;;;4.60;90.50;;;;;;5036964;28;20183;-86
2021/11/10 03:35:31;;;;;;;15.30;8.47;;;4.60;90.70;;;;;;5054440;28;20274;-85
2021/11/10 03:37:56;;;;;;;22.27;9.20;;;4.70;90.70;;;;;;5037335;28;20642;-85
2021/11/10 03:40:22;;;;;;;17.40;8.27;;;4.70;90.80;;;;;;5054989;28;20210;-85
2021/11/10 03:42:48;;;;;;;18.77;8.50;;;4.70;90.70;;;;;;5037237;28;20187;-86
2021/11/10 03:45:13;;;;;;;12.03;8.03;;;4.70;90.60;;;;;;5054931;28;20238;-86
2021/11/10 03:47:39;;;;;;;17.43;7.53;;;4.60;90.60;;;;;;5037062;28;20640;-86
2021/11/10 03:50:05;;;;;;;13.70;8.57;;;4.50;90.60;;;;;;5036992;28;20218;-86
2021/11/10 03:52:32;;;;;;;14.57;8.03;;;4.40;90.70;;;;;;5036977;28;20185;-85
2021/11/10 03:54:58;;;;;;;20.77;8.83;;;4.40;90.70;;;;;;5036882;28;20175;-85
2021/11/10 03:57:23;;;;;;;14.33;8.77;;;4.30;90.80;;;;;;5036893;28;20233;-85
2021/11/10 03:59:49;;;;;;;16.40;8.83;;;4.30;91.10;;;;;;5036766;28;20292;-85
2021/11/10 04:02:15;;;;;;;14.37;8.80;;;4.30;91.20;;;;;;5055003;28;20187;-85
2021/11/10 04:04:41;;;;;;;16.87;9.70;;;4.30;91.30;;;;;;5036896;28;20184;-86
2021/11/10 04:07:07;;;;;;;15.07;9.53;;;4.20;91.40;;;;;;5036680;28;20271;-85
2021/11/10 04:09:32;;;;;;;19.83;10.70;;;4.30;91.60;;;;;;5036500;28;20306;-85
2021/11/10 04:11:58;;;;;;;18.27;9.90;;;4.30;91.50;;;;;;5036698;28;20666;-85
2021/11/10 04:14:23;;;;;;;15.50;9.63;;;4.30;91.60;;;;;;5036703;28;20706;-85
2021/11/10 04:16:49;;;;;;;14.40;9.43;;;4.30;91.70;;;;;;5036655;28;20212;-85
2021/11/10 04:19:15;;;;;;;19.70;9.90;;;4.30;91.80;;;;;;5036287;28;20215;-85
2021/11/10 04:21:41;;;;;;;15.10;9.47;;;4.30;91.90;;;;;;5036493;28;20267;-85
2021/11/10 04:24:07;;;;;;;16.47;9.60;;;4.30;91.90;;;;;;5036437;28;20292;-85
2021/11/10 04:26:37;;;;;;;16.43;9.53;;;4.30;91.80;;;;;;5036408;28;20650;-85
2021/11/10 04:29:04;;;;;;;19.93;10.23;;;4.30;91.90;;;;;;5054055;28;20217;-85
2021/11/10 04:31:30;;;;;;;21.90;11.13;;;4.30;91.90;;;;;;5036575;28;20548;-85
2021/11/10 04:33:56;;;;;;;20.80;10.60;;;4.40;92.00;;;;;;5036192;28;20172;-85
2021/11/10 04:36:24;;;;;;;18.73;10.90;;;4.50;91.90;;;;;;5053991;28;20165;-85
2021/11/10 04:38:50;;;;;;;15.53;10.07;;;4.50;91.90;;;;;;5036126;28;20664;-85
2021/11/10 04:41:16;;;;;;;17.77;10.63;;;4.50;91.80;;;;;;5054190;28;20172;-85
2021/11/10 04:43:42;;;;;;;27.67;11.23;;;4.50;91.70;;;;;;5036030;28;20176;-85
2021/11/10 04:48:43;;;;;;;21.60;10.53;;;4.30;91.60;;;;;;5053636;28;20199;-85
2021/11/10 04:51:14;;;;;;;18.83;11.20;;;4.30;91.60;;;;;;5035983;28;20530;-85
2021/11/10 04:53:42;;;;;;;17.63;12.53;;;4.30;91.60;;;;;;5035963;28;20526;-85
2021/11/10 04:56:08;;;;;;;20.00;11.70;;;4.30;91.60;;;;;;5035805;28;20171;-85
2021/11/10 04:58:35;;;;;;;15.47;10.97;;;4.30;91.70;;;;;;5053659;28;20181;-85
2021/11/10 05:01:01;;;;;;;19.70;11.90;;;4.30;91.60;;;;;;5035626;28;20196;-85
2021/11/10 05:03:27;;;;;;;22.03;12.50;;;4.30;91.70;;;;;;5053579;28;20177;-85
2021/11/10 05:05:53;;;;;;;19.57;12.30;;;4.30;91.80;;;;;;5035756;28;20534;-85
2021/11/10 05:08:18;;;;;;;18.77;12.67;;;4.30;91.90;;;;;;5053343;28;20189;-85
2021/11/10 05:10:44;;;;;;;22.67;12.63;;;4.30;92.00;;;;;;5035584;28;20194;-85
2021/11/10 05:13:10;;;;;;;22.67;13.30;;;4.30;91.90;;;;;;5053744;28;20165;-85
2021/11/10 05:15:36;;;;;;;18.43;13.17;;;4.40;91.90;;;;;;5053361;28;20230;-85
2021/11/10 05:18:01;;;;;;;23.80;12.40;;;4.40;91.90;;;;;;5035382;28;20180;-85
2021/11/10 05:20:27;;;;;;;28.83;14.80;;;4.50;91.80;;;;;;5047727;22;20224;-88
2021/11/10 05:22:54;;;;;;;25.13;14.40;;;4.50;91.80;;;;;;5033397;28;20181;-88
2021/11/10 05:25:20;;;;;;;28.37;13.97;;;4.50;91.70;;;;;;5033361;28;20190;-88
2021/11/10 05:27:46;;;;;;;24.77;14.07;;;4.40;91.70;;;;;;5015633;28;20174;-88
2021/11/10 05:30:12;;;;;;;21.47;13.67;;;4.40;91.80;;;;;;5015406;28;20223;-88
2021/11/10 05:32:39;;;;;;;25.50;14.60;;;4.40;91.80;;;;;;5033270;28;20177;-88
2021/11/10 05:35:06;;;;;;;22.17;14.17;;;4.40;91.80;;;;;;5015620;28;20180;-88
2021/11/10 05:37:32;;;;;;;25.73;15.00;;;4.50;91.80;;;;;;5015555;28;20255;-88
2021/11/10 05:39:58;;;;;;;23.97;14.93;;;4.50;91.70;;;;;;5015677;28;20645;-89
2021/11/10 05:42:25;;;;;;;24.63;15.00;;;4.40;91.60;;;;;;5015367;28;20199;-89
2021/11/10 05:44:51;;;;;;;24.10;14.10;;;4.40;91.60;;;;;;5015507;28;20180;-89
2021/11/10 05:47:17;;;;;;;19.97;13.67;;;4.40;91.60;;;;;;5033101;28;20541;-89
2021/11/10 05:49:43;;;;;;;29.13;12.97;;;4.40;91.50;;;;;;5032948;28;20206;-89
2021/11/10 05:52:09;;;;;;;20.73;12.77;;;4.40;91.50;;;;;;5033282;28;20169;-89
2021/11/10 05:54:37;;;;;;;15.87;12.67;;;4.40;91.50;;;;;;5015456;28;20606;-89
2021/11/10 05:57:03;;;;;;;18.07;12.20;;;4.40;91.40;;;;;;5033594;28;20237;-89
2021/11/10 05:59:29;;;;;;;20.47;11.90;;;4.30;91.40;;;;;;5019254;28;20193;-89
2021/11/10 06:01:55;;;;;;;19.73;11.60;;;4.40;91.40;;;;;;5019413;28;20189;-89
2021/11/10 06:04:21;;;;;;;20.83;10.83;;;4.30;91.20;;;;;;5036929;28;20199;-88
2021/11/10 06:06:47;;;;;;;20.73;11.20;;;4.30;91.20;;;;;;5019260;28;20178;-89
2021/11/10 06:09:13;;;;;;;18.37;12.20;;;4.30;91.30;;;;;;5019060;28;20207;-89
2021/11/10 06:11:39;;;;;;;19.07;11.17;;;4.30;91.30;;;;;;5036886;28;20176;-88
2021/11/10 06:14:05;;;;;;;17.40;10.80;;;4.20;91.20;;;;;;5036812;28;20215;-89
2021/11/10 06:16:31;;;;;;;17.93;11.43;;;4.20;91.20;;;;;;5018944;28;20176;-89
2021/11/10 06:18:56;;;;;;;21.50;12.10;;;4.20;91.30;;;;;;5018982;28;20170;-89
2021/11/10 06:21:22;;;;;;;20.07;12.17;;;4.20;91.20;;;;;;5018844;28;20214;-89
2021/11/10 06:23:48;;;;;;;17.37;11.73;;;4.20;91.20;;;;;;5036584;28;20252;-89
2021/11/10 06:26:14;;;;;;;20.60;11.50;;;4.20;91.30;;;;;;5018953;28;20721;-89
2021/11/10 06:28:40;;;;;;;18.60;11.37;;;4.30;91.40;;;;;;5036323;28;20232;-89
2021/11/10 06:31:05;;;;;;;19.77;11.97;;;4.20;91.20;;;;;;5018842;28;20228;-89
2021/11/10 06:33:31;;;;;;;27.00;12.90;;;4.20;91.20;;;;;;5018726;28;20175;-89
2021/11/10 06:35:58;;;;;;;21.10;12.87;;;4.30;91.30;;;;;;5018698;28;20184;-89
2021/11/10 06:38:25;;;;;;;23.17;11.73;;;4.30;91.30;;;;;;5018663;28;20244;-89
2021/11/10 06:40:50;;;;;;;22.27;11.87;;;4.30;91.30;;;;;;5018590;28;20695;-89
2021/11/10 06:43:16;;;;;;;22.03;12.23;;;4.30;91.40;;;;;;5036313;28;20177;-89
2021/11/10 06:45:42;;;;;;;23.10;11.67;;;4.30;91.40;;;;;;5019676;28;20252;-89
2021/11/10 06:48:07;;;;;;;20.57;12.50;;;4.40;91.40;;;;;;5018456;28;20181;-89
2021/11/10 06:50:33;;;;;;;19.83;12.13;;;4.40;91.40;;;;;;5018383;28;20344;-89
2021/11/10 06:52:59;;;;;;;24.87;12.67;;;4.30;91.40;;;;;;5018346;28;20175;-89
2021/11/10 06:55:25;;;;;;;19.33;13.17;;;4.30;91.40;;;;;;5018325;28;20175;-89
2021/11/10 06:57:51;;;;;;;27.97;12.43;;;4.40;91.50;;;;;;5018283;28;20185;-89
2021/11/10 07:00:17;;;;;;;21.00;13.23;;;4.30;91.50;;;;;;5035941;28;20201;-89
2021/11/10 07:02:43;;;;;;;22.50;13.43;;;4.40;91.50;;;;;;5018207;28;20648;-89
2021/11/10 07:05:09;;;;;;;30.37;13.60;;;4.30;91.60;;;;;;5035941;28;20179;-88
2021/11/10 07:07:35;;;;;;;22.10;13.83;;;4.30;91.60;;;;;;5035599;28;20262;-89
2021/11/10 07:10:02;;;;;;;23.40;14.03;;;4.40;91.60;;;;;;5017937;28;20301;-89
2021/11/10 07:12:28;;;;;;;28.87;13.27;;;4.50;91.70;;;;;;5017994;28;20172;-90
2021/11/10 07:14:53;;;;;;;24.03;14.13;;;4.50;91.80;;;;;;5018059;28;20258;-89
2021/11/10 07:17:19;;;;;;;26.00;14.60;;;4.60;91.90;;;;;;5017937;28;20657;-89
2021/11/10 07:19:45;;;;;;;23.73;13.37;;;4.60;91.90;;;;;;5035393;28;20213;-89
2021/11/10 07:22:10;;;;;;;21.57;13.97;;;4.70;91.90;;;;;;5017739;28;20665;-89
2021/11/10 07:24:36;;;;;;;27.37;13.87;;;4.70;91.90;;;;;;5017840;28;20209;-89
2021/11/10 07:27:02;;;;;;;24.93;14.97;;;4.80;92.00;;;;;;5035678;28;20229;-89
2021/11/10 07:29:30;;;;;;;23.90;13.83;;;4.90;92.10;;;;;;5017464;28;20209;-89
2021/11/10 07:31:56;;;;;;;22.87;14.63;;;5.00;92.10;;;;;;5017640;28;20646;-89
2021/11/10 07:34:21;;;;;;;22.80;14.37;;;5.00;92.10;;;;;;5017594;28;20181;-89
2021/11/10 07:36:47;;;;;;;28.23;15.80;;;5.10;92.10;;;;;;5017556;28;20520;-88
2021/11/10 07:39:13;;;;;;;23.90;16.10;;;5.30;92.30;;;;;;5017487;28;20248;-88
2021/11/10 07:41:39;;;;;;;25.80;15.33;;;5.40;92.00;;;;;;5017416;28;20270;-89
2021/11/10 07:44:08;;;;;;;25.73;15.33;;;5.50;91.60;;;;;;5017648;28;20716;-88
2021/11/10 07:46:34;;;;;;;25.10;15.10;;;5.50;91.50;;;;;;5017384;28;20181;-89
2021/11/10 07:49:00;;;;;;;23.07;14.07;;;5.50;91.50;;;;;;5017422;28;20202;-88
2021/11/10 07:51:26;;;;;;;29.30;14.37;;;5.50;91.60;;;;;;5017401;28;20579;-89
2021/11/10 07:53:52;;;;;;;27.53;14.03;;;5.60;91.80;;;;;;5017300;28;20181;-89
2021/11/10 07:56:17;;;;;;;22.27;13.97;;;5.60;91.70;;;;;;5017309;28;20171;-88
2021/11/10 07:58:43;;;;;;;24.30;14.70;;;5.60;91.60;;;;;;5017499;28;20182;-89
2021/11/10 08:01:10;;;;;;;25.40;14.43;;;5.70;91.70;;;;;;5034763;28;20203;-89
2021/11/10 08:03:36;;;;;;;20.73;14.30;;;5.70;91.60;;;;;;5017466;28;20649;-89
2021/11/10 08:06:03;;;;;;;29.40;15.50;;;5.80;91.50;;;;;;5016955;28;20179;-89
2021/11/10 08:08:29;;;;;;;21.00;14.80;;;5.80;91.40;;;;;;5034634;28;20256;-89
2021/11/10 08:10:58;;;;;;;27.13;14.83;;;5.90;91.50;;;;;;5016831;28;20210;-89
2021/11/10 08:13:24;;;;;;;23.33;14.57;;;6.00;91.50;;;;;;5016897;28;20175;-88
2021/11/10 08:15:52;;;;;;;24.77;14.20;;;6.00;91.40;;;;;;5016805;28;20238;-89
2021/11/10 08:18:18;;;;;;;23.47;15.07;;;6.10;91.30;;;;;;5016728;28;20179;-89
2021/11/10 08:20:44;;;;;;;22.27;14.70;;;6.10;91.30;;;;;;5016061;28;20627;-89
2021/11/10 08:23:13;;;;;;;23.87;14.90;;;6.20;91.40;;;;;;5016676;28;20172;-89
2021/11/10 08:25:38;;;;;;;25.63;14.37;;;6.20;91.50;;;;;;5016644;28;20176;-89
2021/11/10 08:28:04;;;;;;;24.57;14.03;;;6.30;91.50;;;;;;5016598;28;20173;-88
2021/11/10 08:30:30;;;;;;;20.00;13.30;;;6.30;91.40;;;;;;5034183;28;20215;-89
2021/11/10 08:32:56;;;;;;;21.63;13.60;;;6.40;91.40;;;;;;5016429;28;20268;-89
2021/11/10 08:35:22;;;;;;;21.17;14.67;;;6.50;91.20;;;;;;5016432;28;20267;-89
2021/11/10 08:37:50;;;;;;;24.10;13.47;;;6.50;91.00;;;;;;5016509;28;20210;-89
2021/11/10 08:40:16;;;;;;;24.47;13.43;;;6.50;91.00;;;;;;5016532;28;20192;-89
2021/11/10 08:42:42;;;;;;;21.90;13.93;;;6.60;91.10;;;;;;5016270;28;20177;-89
2021/11/10 08:45:11;;;;;;;22.73;14.43;;;6.70;91.20;;;;;;5033962;28;20172;-90
2021/11/10 08:47:40;;;;;;;23.43;14.57;;;6.70;91.30;;;;;;5016215;28;20175;-89
2021/11/10 08:50:08;;;;;;;21.27;13.37;;;6.80;91.50;;;;;;5016143;28;20215;-89
2021/11/10 08:52:35;;;;;;;23.07;13.07;;;6.90;91.40;;;;;;5016289;28;20164;-89
2021/11/10 08:55:01;;;;;;;22.43;14.00;;;7.00;91.50;;;;;;5016093;28;20259;-90
2021/11/10 08:57:27;;;;;;;17.73;12.77;;;7.10;91.80;;;;;;5016012;28;20200;-90
2021/11/10 08:59:52;;;;;;;21.10;13.53;;;7.30;91.70;;;;;;5033668;28;20276;-90
2021/11/10 09:02:18;;;;;;;22.10;13.07;;;7.30;91.40;;;;;;5033682;28;20223;-89
2021/11/10 09:04:44;;;;;;;21.93;14.67;;;7.30;91.10;;;;;;5016265;28;20558;-90
2021/11/10 09:07:10;;;;;;;21.43;13.23;;;7.30;91.10;;;;;;5016196;28;20176;-90
2021/11/10 09:09:36;;;;;;;19.77;13.60;;;7.30;90.80;;;;;;5015788;28;20215;-89
2021/11/10 09:12:03;;;;;;;23.03;14.50;;;7.40;91.00;;;;;;5016106;28;20712;-90
2021/11/10 09:14:29;;;;;;;25.10;15.00;;;7.40;90.80;;;;;;5015912;28;20314;-90
2021/11/10 09:16:54;;;;;;;26.70;14.13;;;7.50;90.90;;;;;;5033485;28;20633;-89
2021/11/10 09:19:20;;;;;;;21.30;14.17;;;7.60;91.10;;;;;;5015601;28;20179;-90
2021/11/10 09:21:46;;;;;;;24.43;14.33;;;7.60;90.80;;;;;;5015950;28;20173;-88
2021/11/10 09:24:12;;;;;;;20.10;13.43;;;7.60;90.60;;;;;;5016058;28;20181;-89
2021/11/10 09:26:39;;;;;;;18.30;13.07;;;7.50;90.40;;;;;;5033403;28;20231;-90
2021/11/10 09:29:06;;;;;;;22.53;13.93;;;7.60;90.20;;;;;;5015464;28;20231;-90
2021/11/10 09:31:35;;;;;;;20.33;13.63;;;7.60;90.10;;;;;;5016662;28;20246;-91
2021/11/10 09:34:06;;;;;;;27.77;14.50;;;7.50;90.30;;;;;;5015796;28;20668;-92
2021/11/10 09:36:32;;;;;;;19.00;12.90;;;7.60;90.10;;;;;;5016552;28;20176;-90
2021/11/10 09:38:58;;;;;;;28.07;13.80;;;7.70;90.00;;;;;;5015642;28;20543;-91
2021/11/10 09:41:24;;;;;;;20.20;13.90;;;7.70;90.10;;;;;;5033386;28;20246;-90
2021/11/10 09:43:50;;;;;;;26.27;15.37;;;7.80;90.20;;;;;;5015535;28;20173;-90
2021/11/10 09:46:16;;;;;;;23.90;13.20;;;7.80;90.10;;;;;;5015531;28;20366;-89
2021/11/10 09:48:42;;;;;;;24.27;15.63;;;7.70;89.70;;;;;;5015363;28;20288;-89
2021/11/10 09:51:08;;;;;;;21.20;13.17;;;7.80;90.30;;;;;;5015378;28;20192;-89
2021/11/10 09:53:35;;;;;;;20.00;13.87;;;7.80;89.90;;;;;;5015379;28;20558;-90
2021/11/10 09:56:03;;;;;;;22.47;13.67;;;7.90;90.10;;;;;;5015382;28;20169;-89
2021/11/10 09:58:30;;;;;;;22.47;13.67;;;8.00;90.20;;;;;;5015342;28;20227;-89
2021/11/10 10:01:00;;;;;;;22.20;13.30;;;8.00;90.00;;;;;;5032980;28;20181;-89
2021/11/10 10:03:26;;;;;;;22.60;14.83;;;8.00;89.90;;;;;;5015393;28;20180;-89
2021/11/10 10:05:54;;;;;;;21.47;13.10;;;8.10;89.80;;;;;;5032975;28;20169;-89
2021/11/10 10:08:21;;;;;;;24.67;12.60;;;8.10;89.70;;;;;;5032953;28;20168;-89
2021/11/10 10:10:48;;;;;;;21.20;13.40;;;8.20;89.70;;;;;;5033167;28;20188;-89
2021/11/10 10:13:16;;;;;;;22.73;13.13;;;8.20;89.20;;;;;;5015295;28;20231;-89
2021/11/10 10:15:43;;;;;;;22.40;14.03;;;8.20;89.30;;;;;;5015196;28;20172;-89
2021/11/10 10:18:17;;;;;;;20.10;12.13;;;8.30;89.40;;;;;;5032876;28;20192;-89
2021/11/10 10:20:44;;;;;;;21.37;13.17;;;8.40;89.50;;;;;;5032652;28;20223;-90
2021/11/10 10:23:17;;;;;;;15.80;12.37;;;8.40;89.20;;;;;;5015253;28;20181;-89
2021/11/10 10:25:52;;;;;;;21.03;12.57;;;8.50;89.40;;;;;;5015114;28;20177;-89
2021/11/10 10:28:39;;;;;;;18.43;13.20;;;8.60;89.00;;;;;;5032690;28;20148;-89
2021/11/10 10:31:21;;;;;;;21.23;12.43;;;8.70;88.90;;;;;;5032727;28;20568;-89
2021/11/10 10:33:50;;;;;;;18.10;11.80;;;8.70;88.60;;;;;;5032644;28;20236;-89
2021/11/10 10:36:18;;;;;;;19.97;12.93;;;8.80;88.90;;;;;;5014951;28;20173;-89
2021/11/10 10:38:51;;;;;;;29.30;12.73;;;8.80;89.00;;;;;;5032676;28;20226;-90
2021/11/10 10:41:24;;;;;;;19.37;13.50;;;8.80;88.90;;;;;;5032563;28;20199;-90
2021/11/10 10:43:54;;;;;;;20.37;13.63;;;8.80;89.10;;;;;;5016853;28;20231;-89
2021/11/10 10:46:26;;;;;;;20.40;12.57;;;8.80;88.90;;;;;;5018501;28;20207;-90
2021/11/10 10:48:51;;;;;;;21.87;11.87;;;9.00;89.30;;;;;;5018487;28;20349;-90
2021/11/10 10:51:19;;;;;;;20.00;12.00;;;9.00;89.20;;;;;;5018296;28;20294;-90
2021/11/10 10:53:48;;;;;;;20.53;12.80;;;9.00;89.20;;;;;;5018712;28;20188;-90
2021/11/10 10:56:23;;;;;;;16.97;11.60;;;9.10;89.30;;;;;;5018305;28;20203;-90
2021/11/10 10:59:11;;;;;;;19.03;11.87;;;9.10;89.10;;;;;;5018433;28;20172;-90
2021/11/10 11:02:09;;;;;;;20.40;13.00;;;9.10;89.20;;;;;;5018008;28;20270;-90
2021/11/10 11:04:40;;;;;;;16.30;11.90;;;9.10;88.90;;;;;;5026959;28;20664;-90
2021/11/10 11:07:09;;;;;;;17.33;12.03;;;9.00;88.80;;;;;;5036214;28;20161;-89
2021/11/10 11:09:42;;;;;;;19.30;11.73;;;9.10;88.90;;;;;;5018122;28;20216;-90
2021/11/10 11:12:20;;;;;;;18.03;11.10;;;9.10;88.80;;;;;;5018127;28;20161;-90
2021/11/10 11:15:01;;;;;;;18.67;11.43;;;9.10;89.20;;;;;;5035786;28;20161;-89
2021/11/10 11:17:36;;;;;;;18.70;11.97;;;9.20;89.30;;;;;;5035986;28;20208;-90
2021/11/10 11:20:13;;;;;;;17.63;12.20;;;9.20;89.60;;;;;;5062383;23;20238;-88
2021/11/10 11:22:45;;;;;;;19.63;12.70;;;9.20;89.50;;;;;;5038120;28;20246;-89
2021/11/10 11:25:15;;;;;;;22.53;12.60;;;9.30;89.40;;;;;;5056403;28;20200;-90
2021/11/10 11:28:04;;;;;;;17.13;11.97;;;9.30;89.50;;;;;;5055559;28;20247;-90
2021/11/10 11:30:39;;;;;;;20.20;11.37;;;9.40;89.70;;;;;;5034188;28;20215;-90
2021/11/10 11:33:11;;;;;;;23.10;13.13;;;9.40;89.70;;;;;;5018750;28;20597;-90
2021/11/10 11:35:40;;;;;;;18.63;11.67;;;9.30;88.70;;;;;;5017812;28;20581;-90
2021/11/10 11:38:15;;;;;;;16.47;11.37;;;9.30;88.90;;;;;;5035680;28;20165;-88
2021/11/10 11:40:41;;;;;;;24.17;11.93;;;9.30;88.70;;;;;;5017589;28;20545;-89
2021/11/10 11:43:09;;;;;;;16.33;12.57;;;9.30;89.30;;;;;;5035505;28;20534;-87
2021/11/10 11:45:39;;;;;;;23.70;12.20;;;9.30;88.80;;;;;;5017469;28;20541;-89
2021/11/10 11:48:06;;;;;;;18.07;12.10;;;9.30;88.80;;;;;;5017800;28;20211;-89
2021/11/10 11:50:32;;;;;;;18.13;12.23;;;9.30;89.00;;;;;;5017159;28;20251;-88
2021/11/10 11:52:58;;;;;;;19.87;13.20;;;9.30;88.90;;;;;;5017365;28;20588;-89
2021/11/10 11:55:28;;;;;;;17.27;11.10;;;9.30;88.80;;;;;;5016239;28;20196;-88
2021/11/10 11:58:19;;;;;;;17.27;11.87;;;9.30;88.60;;;;;;5017330;28;20230;-88
2021/11/10 12:00:50;;;;;;;20.13;12.50;;;9.30;88.00;;;;;;4980184;28;20204;-88
2021/11/10 12:03:25;;;;;;;20.37;12.93;;;9.30;88.00;;;;;;5018015;28;20165;-88
2021/11/10 12:05:53;;;;;;;19.17;12.80;;;9.20;87.90;;;;;;5017023;28;20169;-88
2021/11/10 12:08:43;;;;;;;18.93;12.63;;;9.20;88.00;;;;;;5016922;28;20646;-88
2021/11/10 12:11:29;;;;;;;18.03;12.83;;;9.30;88.30;;;;;;5016927;28;20208;-87
2021/11/10 12:14:28;;;;;;;18.17;12.87;;;9.30;88.30;;;;;;5034684;28;20652;-88
2021/11/10 12:17:12;;;;;;;16.83;13.10;;;9.20;88.20;;;;;;5017067;28;20255;-86
2021/11/10 12:19:59;;;;;;;18.00;12.53;;;9.20;87.80;;;;;;5016762;28;20196;-88
2021/11/10 12:22:26;;;;;;;21.60;12.13;;;9.20;87.90;;;;;;5017656;28;20173;-88
2021/11/10 12:24:54;;;;;;;22.07;14.13;;;9.20;88.00;;;;;;5034628;28;20179;-88
2021/11/10 12:27:29;;;;;;;20.97;13.67;;;9.20;88.30;;;;;;5034373;28;20192;-88
2021/11/10 12:29:57;;;;;;;19.20;12.20;;;9.20;88.20;;;;;;5016594;28;20211;-88
2021/11/10 12:32:47;;;;;;;18.13;12.30;;;9.20;87.90;;;;;;5034328;28;20172;-88
2021/11/10 12:35:24;;;;;;;23.30;13.70;;;9.30;88.10;;;;;;5024535;28;20234;-88
2021/11/10 12:37:54;;;;;;;23.50;12.50;;;9.20;88.10;;;;;;5016517;28;20196;-88
2021/11/10 12:40:58;;;;;;;18.73;12.63;;;9.30;88.20;;;;;;5016450;28;20196;-87
2021/11/10 12:43:26;;;;;;;19.87;12.00;;;9.30;87.90;;;;;;5029515;28;20538;-89
2021/11/10 12:46:07;;;;;;;17.93;12.73;;;9.20;87.80;;;;;;5016272;28;20183;-88